• Join FlightAware (Why Join?)
  • Login
  • US Flag 
06:16AM EDT


 

Airport Tracker/Info


-or-


 

Live Flight TrackerFlight Track Log ✈ XOJ552 ✈ 18-Oct-2013 ✈ KGSO - KCHO

Flight Track Log - Related Links

Times and Time Zones

All times are in EDT time to prevent confusion due to time zone crossing. See the XOJ552 flight status page for this flight to view local times or setup timezone preferences in your user account.

Time Position Orientation Groundspeed Altitude Reporting Facility
EDT Latitude Longitude Course Direction KTS MPH feet Rate Location/Type
12:42PM 36.1786 -79.8456 24° Northeast 268 308 7,700  Level Washington Center
12:43PM 36.2381 -79.7561 50° Northeast 302 348 11,500 3,480 Climbing Washington Center
12:44PM 36.2789 -79.6578 63° Northeast 349 402 14,800 2,640 Climbing Washington Center
12:45PM 36.3675 -79.5669 40° Northeast 362 417 16,900 1,080 Climbing Washington Center
12:46PM 36.4592 -79.5097 27° Northeast 390 449 17,000  Climbing Washington Center
12:47PM 36.5208 -79.6423 North  Level Estimated
12:47PM 36.5656 -79.4453 26° Northeast 407 468 16,900  Level Washington Center
12:48PM 36.5944 -79.6014 24° Northeast  Level FlightAware Approximate
12:48PM 36.6678 -79.3778 28° Northeast 412 474 17,000  Level Washington Center
12:49PM 36.7828 -79.3056 27° Northeast 412 474 17,000  Level Washington Center
12:50PM 36.8850 -79.2403 27° Northeast 412 474 17,000  Level Washington Center
12:51PM 36.9892 -79.1725 27° Northeast 412 474 17,000  Level Washington Center
12:52PM 37.0914 -79.1094 26° Northeast 412 474 17,000  Level Washington Center
12:53PM 37.1828 -79.0486 28° Northeast 412 474 17,000  Level Washington Center
12:54PM 37.2847 -78.9853 26° Northeast 412 474 17,000 -660 Level Washington Center
12:55PM 37.3803 -78.9217 28° Northeast 401 461 15,700 -1,920 Descending Washington Center
12:56PM 37.4781 -78.8606 26° Northeast 369 425 13,300 -2,220 Descending Washington Center
12:57PM 37.5628 -78.8064 27° Northeast 347 399 11,300 -1,680 Descending Washington Center
12:58PM 37.6414 -78.7547 27° Northeast 335 386 10,000 -780 Descending Washington Center
12:59PM 37.7072 -78.7128 27° Northeast 308 354 9,800 -540 Descending Washington Center
01:00PM 37.7750 -78.6683 27° Northeast 284 327 9,000 -420 Descending Washington Center
01:01PM 37.8344 -78.6286 28° Northeast 263 303 9,000 -300 Level Washington Center
01:02PM 37.8961 -78.5892 27° Northeast 252 290 8,500 -1,440 Descending Washington Center
01:03PM 37.9617 -78.5469 27° Northeast 239 275 6,200 -2,040 Descending Washington Center
01:04PM 38.0083 -78.5119 31° Northeast 231 266 4,500 -1,860 Descending Washington Center
01:05PM 38.0631 -78.4903 17° North 190 219 2,500 -1,440 Descending Washington Center
01:06PM 38.0969 -78.4731 22° Northeast 171 197 1,700 -900 Descending Washington Center
01:07PM 38.1456 -78.4511 20° North 159 183 700 -1,020 Descending Washington Center
01:09PM 38.1333 -78.4500 North  Level FlightAware Approximate